createdAt,value
2023-02-04T00:02:06.902Z,10.23
2023-02-04T00:04:50.732Z,11.00
2023-02-04T00:07:34.594Z,9.53
2023-02-04T00:10:19.024Z,10.40
2023-02-04T00:13:02.864Z,10.27
2023-02-04T00:15:48.058Z,10.20
2023-02-04T00:18:31.837Z,10.13
2023-02-04T00:21:15.829Z,13.27
2023-02-04T00:23:59.584Z,12.40
2023-02-04T00:26:43.395Z,10.83
2023-02-04T00:29:27.117Z,12.63
2023-02-04T00:32:12.632Z,12.77
2023-02-04T00:34:56.544Z,13.77
2023-02-04T00:37:40.590Z,12.70
2023-02-04T00:40:24.596Z,12.10
2023-02-04T00:43:08.585Z,13.47
2023-02-04T00:45:55.154Z,12.80
2023-02-04T00:48:40.543Z,13.43
2023-02-04T00:51:24.458Z,13.03
2023-02-04T00:54:09.092Z,12.63
2023-02-04T00:56:53.048Z,15.00
2023-02-04T00:59:37.005Z,16.40
2023-02-04T01:02:20.887Z,13.80
2023-02-04T01:05:06.596Z,15.40
2023-02-04T01:07:50.473Z,18.83
2023-02-04T01:10:34.773Z,15.77
2023-02-04T01:13:18.934Z,13.83
2023-02-04T01:16:03.467Z,13.47
2023-02-04T01:18:47.612Z,13.63
2023-02-04T01:21:33.010Z,12.70
2023-02-04T01:24:16.989Z,12.87
2023-02-04T01:27:19.424Z,11.60
2023-02-04T01:30:03.405Z,12.53
2023-02-04T01:32:47.521Z,12.07
2023-02-04T01:35:31.467Z,11.13
2023-02-04T01:38:16.876Z,11.60
2023-02-04T01:41:01.365Z,8.97
2023-02-04T01:43:45.470Z,11.63
2023-02-04T01:46:29.601Z,11.00
2023-02-04T01:49:14.086Z,10.77
2023-02-04T01:51:58.716Z,10.30
2023-02-04T01:54:44.174Z,8.93
2023-02-04T01:57:28.276Z,10.30
2023-02-04T02:00:16.636Z,9.03
2023-02-04T02:03:01.406Z,9.83
2023-02-04T02:05:48.474Z,7.43
2023-02-04T02:08:32.406Z,8.60
2023-02-04T02:11:17.958Z,7.27
2023-02-04T02:14:02.354Z,7.03
2023-02-04T02:17:06.570Z,7.20
2023-02-04T02:19:50.541Z,9.70
2023-02-04T02:22:39.065Z,8.63
2023-02-04T02:25:24.548Z,9.57
2023-02-04T02:28:11.590Z,9.60
2023-02-04T02:30:57.176Z,9.67
2023-02-04T02:33:41.331Z,10.27
2023-02-04T02:36:26.096Z,9.33
2023-02-04T02:39:11.531Z,9.77
2023-02-04T02:41:57.892Z,11.03
2023-02-04T02:44:42.160Z,9.73
2023-02-04T02:47:26.729Z,9.80
2023-02-04T02:50:16.832Z,10.47
2023-02-04T02:53:01.333Z,12.23
2023-02-04T02:55:46.360Z,13.30
2023-02-04T02:58:37.616Z,13.37
2023-02-04T03:01:23.089Z,11.40
2023-02-04T03:04:08.652Z,11.80
2023-02-04T03:06:53.519Z,11.57
2023-02-04T03:09:38.221Z,12.57
2023-02-04T03:12:22.344Z,11.13
2023-02-04T03:15:09.243Z,12.97
2023-02-04T03:17:56.667Z,12.43
2023-02-04T03:20:41.683Z,12.97
2023-02-04T03:23:27.957Z,17.10
2023-02-04T03:26:11.953Z,14.20
2023-02-04T03:28:56.083Z,15.60
2023-02-04T03:31:43.517Z,14.50
2023-02-04T03:34:27.640Z,12.53
2023-02-04T03:37:11.640Z,12.70
2023-02-04T03:39:55.534Z,12.33
2023-02-04T03:42:39.482Z,12.40
2023-02-04T03:45:23.405Z,11.40
2023-02-04T03:48:08.870Z,10.17
2023-02-04T03:50:53.015Z,11.67
2023-02-04T03:53:37.076Z,10.63
2023-02-04T03:56:20.973Z,12.60
2023-02-04T03:59:04.954Z,11.37
2023-02-04T04:01:49.041Z,11.47
2023-02-04T04:04:34.614Z,13.57
2023-02-04T04:07:18.546Z,12.70
2023-02-04T04:10:02.586Z,12.43
2023-02-04T04:12:47.409Z,12.77
2023-02-04T04:15:31.562Z,13.07
2023-02-04T04:18:15.554Z,12.37
2023-02-04T04:21:01.222Z,12.83
2023-02-04T04:23:45.585Z,12.97
2023-02-04T04:26:29.578Z,13.63
2023-02-04T04:29:13.532Z,12.93
2023-02-04T04:31:57.471Z,11.03
2023-02-04T04:34:41.456Z,12.53
2023-02-04T04:37:27.077Z,13.23
2023-02-04T04:40:13.378Z,13.23
2023-02-04T04:42:57.351Z,12.40
2023-02-04T04:45:41.249Z,12.07
2023-02-04T04:48:25.695Z,14.00
2023-02-04T04:51:09.759Z,13.83
2023-02-04T04:53:55.192Z,15.40
2023-02-04T04:56:39.114Z,13.17
2023-02-04T04:59:23.129Z,12.90
2023-02-04T05:02:07.058Z,12.67
2023-02-04T05:04:50.997Z,12.97
2023-02-04T05:07:35.005Z,12.60
2023-02-04T05:10:21.075Z,12.13
2023-02-04T05:13:05.192Z,11.70
2023-02-04T05:15:49.180Z,12.80
2023-02-04T05:18:33.091Z,16.67
2023-02-04T05:21:17.080Z,19.07
2023-02-04T05:24:01.050Z,19.13
2023-02-04T05:26:46.466Z,18.17
2023-02-04T05:29:30.451Z,19.87
2023-02-04T05:32:14.542Z,21.03
2023-02-04T05:34:58.515Z,23.23
2023-02-04T05:37:42.380Z,23.87
2023-02-04T05:40:26.266Z,22.60
2023-02-04T05:43:11.475Z,22.73
2023-02-04T05:45:55.392Z,22.90
2023-02-04T05:48:40.342Z,16.90
2023-02-04T05:51:24.264Z,17.37
2023-02-04T05:54:08.210Z,17.73
2023-02-04T05:56:52.034Z,17.87
2023-02-04T05:59:37.249Z,16.43
2023-02-04T06:02:21.043Z,15.53
2023-02-04T06:05:05.121Z,15.30
2023-02-04T06:07:48.902Z,14.60
2023-02-04T06:10:32.974Z,17.47
2023-02-04T06:13:17.036Z,15.33
2023-02-04T06:16:02.146Z,14.00
2023-02-04T06:18:45.852Z,14.37
2023-02-04T06:21:29.686Z,12.83
2023-02-04T06:24:13.415Z,14.20
2023-02-04T06:26:57.294Z,16.23
2023-02-04T06:29:41.069Z,16.70
2023-02-04T06:32:26.245Z,14.77
2023-02-04T06:35:11.037Z,11.97
2023-02-04T06:37:54.783Z,12.27
2023-02-04T06:40:38.641Z,11.70
2023-02-04T06:43:24.122Z,12.23
2023-02-04T06:46:08.187Z,11.17
2023-02-04T06:48:53.351Z,9.27
2023-02-04T06:51:37.110Z,10.60
2023-02-04T06:54:21.057Z,11.40
2023-02-04T06:57:07.726Z,11.83
2023-02-04T06:59:51.459Z,12.70
2023-02-04T07:02:35.291Z,12.60
2023-02-04T07:05:20.631Z,13.97
2023-02-04T07:08:04.538Z,13.63
2023-02-04T07:10:48.596Z,30.87
2023-02-04T07:13:32.482Z,15.87
2023-02-04T07:16:16.334Z,15.60
2023-02-04T07:19:00.121Z,16.53
2023-02-04T07:21:45.431Z,16.97
2023-02-04T07:24:29.659Z,15.50
2023-02-04T07:27:13.501Z,16.33
2023-02-04T07:29:57.388Z,17.73
2023-02-04T07:32:41.197Z,15.17
2023-02-04T07:35:25.086Z,16.53
2023-02-04T07:38:10.302Z,13.30
2023-02-04T07:40:54.059Z,15.50
2023-02-04T07:43:38.220Z,14.83
2023-02-04T07:46:22.070Z,15.47
2023-02-04T07:49:05.893Z,13.63
2023-02-04T07:51:49.690Z,15.47
2023-02-04T07:54:35.246Z,14.07
2023-02-04T07:57:20.461Z,12.83
2023-02-04T08:00:05.291Z,12.50
2023-02-04T08:02:56.998Z,11.07
2023-02-04T08:05:41.086Z,12.20
2023-02-04T08:08:25.121Z,11.87
2023-02-04T08:11:10.696Z,10.77
2023-02-04T08:13:54.675Z,12.20
2023-02-04T08:16:38.684Z,11.90
2023-02-04T08:19:22.900Z,10.70
2023-02-04T08:22:07.051Z,10.10
2023-02-04T08:24:50.889Z,11.60
2023-02-04T08:27:36.222Z,11.43
2023-02-04T08:30:20.305Z,11.70
2023-02-04T08:33:04.314Z,12.60
2023-02-04T08:35:48.158Z,12.93
2023-02-04T08:38:32.092Z,13.63
2023-02-04T08:41:16.316Z,14.97
2023-02-04T08:44:01.589Z,15.47
2023-02-04T08:46:45.614Z,15.43
2023-02-04T08:49:29.447Z,17.70
2023-02-04T08:52:13.242Z,19.27
2023-02-04T08:54:57.021Z,21.07
2023-02-04T08:57:40.832Z,24.77
2023-02-04T09:00:26.210Z,22.83
2023-02-04T09:03:09.902Z,25.00
2023-02-04T09:05:53.695Z,36.50
2023-02-04T09:08:37.532Z,36.17
2023-02-04T09:11:21.327Z,37.47
2023-02-04T09:14:05.080Z,38.60
2023-02-04T09:16:50.308Z,40.00
2023-02-04T09:19:34.170Z,40.17
2023-02-04T09:22:17.937Z,34.20
2023-02-04T09:25:01.820Z,42.13
2023-02-04T09:27:46.767Z,37.87
2023-02-04T09:30:31.099Z,36.63
2023-02-04T09:33:17.751Z,35.30
2023-02-04T09:36:01.517Z,34.63
2023-02-04T09:38:45.404Z,29.97
2023-02-04T09:41:29.308Z,29.90
2023-02-04T09:44:17.715Z,32.73
2023-02-04T09:47:02.465Z,34.33
2023-02-04T09:49:47.852Z,34.93
2023-02-04T09:52:31.961Z,58.20
2023-02-04T09:55:17.048Z,73.47
2023-02-04T09:58:01.589Z,38.00
2023-02-04T10:00:46.319Z,41.50
2023-02-04T10:03:30.186Z,56.43
2023-02-04T10:06:17.185Z,63.20
2023-02-04T10:09:01.177Z,48.13
2023-02-04T10:11:48.414Z,36.33
2023-02-04T10:14:32.173Z,33.83
2023-02-04T10:17:20.785Z,34.87
2023-02-04T10:20:04.817Z,35.80
2023-02-04T10:22:52.512Z,34.70
2023-02-04T10:25:36.307Z,33.57
2023-02-04T10:28:20.176Z,32.03
2023-02-04T10:31:04.222Z,31.53
2023-02-04T10:33:48.140Z,31.73
2023-02-04T10:36:31.887Z,33.10
2023-02-04T10:39:19.128Z,30.87
2023-02-04T10:42:03.148Z,27.23
2023-02-04T10:44:48.715Z,28.67
2023-02-04T10:47:32.525Z,28.40
2023-02-04T10:50:19.672Z,28.83
2023-02-04T10:53:21.917Z,26.43
2023-02-04T10:56:15.814Z,27.23
2023-02-04T10:58:59.826Z,28.50
2023-02-04T11:01:44.173Z,28.07
2023-02-04T11:04:29.519Z,28.67
2023-02-04T11:07:14.754Z,26.80
2023-02-04T11:09:58.925Z,31.70
2023-02-04T11:12:46.230Z,32.40
2023-02-04T11:15:42.602Z,32.10
2023-02-04T11:18:34.057Z,31.30
2023-02-04T11:21:25.925Z,36.33
2023-02-04T11:24:25.301Z,27.93
2023-02-04T11:27:24.281Z,26.90
2023-02-04T11:30:22.182Z,24.20
2023-02-04T11:33:08.258Z,27.60
2023-02-04T11:36:06.136Z,30.27
2023-02-04T11:38:51.356Z,22.73
2023-02-04T11:41:35.299Z,20.10
2023-02-04T11:44:19.843Z,22.00
2023-02-04T11:47:09.139Z,20.40
2023-02-04T11:49:58.891Z,21.20
2023-02-04T11:52:42.974Z,23.50
2023-02-04T11:55:27.365Z,23.67
2023-02-04T11:58:16.457Z,23.40
2023-02-04T12:01:00.873Z,23.73
2023-02-04T12:03:49.919Z,24.30
2023-02-04T12:06:36.182Z,24.17
2023-02-04T12:09:26.496Z,23.77
2023-02-04T12:12:10.492Z,23.80
2023-02-04T12:15:05.365Z,24.03
2023-02-04T12:18:01.940Z,19.80
2023-02-04T12:20:47.038Z,9.67
2023-02-04T12:23:31.724Z,4.47
2023-02-04T12:26:15.712Z,3.17
2023-02-04T12:29:01.610Z,2.70
2023-02-04T12:31:45.673Z,4.17
2023-02-04T12:34:29.790Z,3.63
2023-02-04T12:37:15.029Z,4.00
2023-02-04T12:39:58.926Z,4.03
2023-02-04T12:42:42.876Z,4.60
2023-02-04T12:45:26.729Z,4.30
2023-02-04T12:48:10.642Z,4.20
2023-02-04T12:50:54.535Z,5.20
2023-02-04T12:53:39.778Z,5.20
2023-02-04T12:56:24.302Z,4.50
2023-02-04T12:59:08.054Z,5.17
2023-02-04T13:01:52.190Z,5.53
2023-02-04T13:04:36.502Z,5.00
2023-02-04T13:07:21.152Z,3.47
2023-02-04T13:10:07.575Z,5.00
2023-02-04T13:12:51.612Z,4.00
2023-02-04T13:15:35.517Z,5.57
2023-02-04T13:18:19.622Z,3.70
2023-02-04T13:21:03.456Z,6.37
2023-02-04T13:23:47.171Z,7.07
2023-02-04T13:26:32.354Z,4.40
2023-02-04T13:29:16.077Z,5.20
2023-02-04T13:32:00.357Z,5.43
2023-02-04T13:34:44.148Z,5.70
2023-02-04T13:37:28.050Z,6.07
2023-02-04T13:40:13.356Z,6.77
2023-02-04T13:42:58.532Z,7.97
2023-02-04T13:45:47.626Z,6.63
2023-02-04T13:48:31.637Z,6.23
2023-02-04T13:51:15.642Z,6.23
2023-02-04T13:54:00.498Z,6.83
2023-02-04T13:56:44.440Z,6.93
2023-02-04T13:59:29.612Z,7.07
2023-02-04T14:02:13.354Z,6.97
2023-02-04T14:04:57.815Z,9.50
2023-02-04T14:07:41.678Z,9.40
2023-02-04T14:10:26.885Z,9.33
2023-02-04T14:13:11.815Z,8.53
2023-02-04T14:15:57.006Z,10.30
2023-02-04T14:18:40.784Z,9.20
2023-02-04T14:21:24.512Z,7.73
2023-02-04T14:24:08.616Z,10.70
2023-02-04T14:26:52.473Z,10.20
2023-02-04T14:29:36.635Z,10.07
2023-02-04T14:32:22.297Z,11.90
2023-02-04T14:35:07.158Z,14.03
2023-02-04T14:37:51.567Z,12.07
2023-02-04T14:40:35.564Z,13.63
2023-02-04T14:43:19.568Z,17.50
2023-02-04T14:46:05.353Z,21.73
2023-02-04T14:48:52.233Z,12.20
2023-02-04T14:51:36.149Z,12.10
2023-02-04T14:54:20.116Z,13.73
2023-02-04T14:57:04.635Z,11.73
2023-02-04T14:59:48.576Z,10.67
2023-02-04T15:02:32.684Z,9.40
2023-02-04T15:05:18.462Z,9.83
2023-02-04T15:08:02.383Z,10.30
2023-02-04T15:10:46.418Z,11.10
2023-02-04T15:13:30.364Z,11.07
2023-02-04T15:16:15.096Z,17.27
2023-02-04T15:18:59.151Z,16.93
2023-02-04T15:21:44.826Z,15.93
2023-02-04T15:24:29.652Z,14.80
2023-02-04T15:27:13.450Z,23.03
2023-02-04T15:29:57.225Z,18.40
2023-02-04T15:32:42.920Z,13.27
2023-02-04T15:35:26.824Z,12.70
2023-02-04T15:38:12.382Z,11.60
2023-02-04T15:40:56.092Z,11.03
2023-02-04T15:43:40.134Z,10.30
2023-02-04T15:46:24.563Z,15.77
2023-02-04T15:49:09.185Z,10.23
2023-02-04T15:51:53.005Z,13.90
2023-02-04T15:54:38.378Z,17.87
2023-02-04T15:57:22.055Z,17.33
2023-02-04T16:00:07.635Z,14.50
2023-02-04T16:02:51.560Z,15.97
2023-02-04T16:05:35.680Z,15.03
2023-02-04T16:08:19.504Z,7.73
2023-02-04T16:11:06.030Z,8.73
2023-02-04T16:13:50.075Z,17.73
2023-02-04T16:16:33.966Z,10.33
2023-02-04T16:19:17.710Z,12.83
2023-02-04T16:22:01.443Z,15.33
2023-02-04T16:24:45.469Z,31.97
2023-02-04T16:27:31.932Z,13.20
2023-02-04T16:30:15.975Z,13.93
2023-02-04T16:32:59.844Z,12.47
2023-02-04T16:36:04.774Z,8.60
2023-02-04T16:38:48.543Z,11.63
2023-02-04T16:41:32.419Z,15.97
2023-02-04T16:44:17.715Z,11.87
2023-02-04T16:47:01.609Z,8.07
2023-02-04T16:49:46.023Z,8.27
2023-02-04T16:52:30.153Z,11.40
2023-02-04T16:55:13.971Z,7.33
2023-02-04T16:57:57.948Z,10.20
2023-02-04T17:00:44.200Z,7.87
2023-02-04T17:03:28.595Z,9.93
2023-02-04T17:06:16.337Z,9.53
2023-02-04T17:09:00.449Z,8.63
2023-02-04T17:11:45.212Z,4.23
2023-02-04T17:14:28.957Z,14.07
2023-02-04T17:17:14.264Z,8.83
2023-02-04T17:19:59.320Z,18.90
2023-02-04T17:22:43.244Z,19.33
2023-02-04T17:25:27.045Z,14.80
2023-02-04T17:28:10.941Z,15.53
2023-02-04T17:30:54.967Z,11.40
2023-02-04T17:33:40.074Z,16.00
2023-02-04T17:36:23.953Z,12.77
2023-02-04T17:39:08.708Z,16.53
2023-02-04T17:41:52.842Z,8.00
2023-02-04T17:44:36.628Z,9.40
2023-02-04T17:47:20.430Z,7.20
2023-02-04T17:50:07.449Z,12.70
2023-02-04T17:52:51.516Z,7.60
2023-02-04T17:55:37.892Z,18.20
2023-02-04T17:58:24.548Z,14.13
2023-02-04T18:01:12.690Z,13.37
2023-02-04T18:03:56.911Z,14.07
2023-02-04T18:06:42.353Z,17.20
2023-02-04T18:09:26.164Z,14.73
2023-02-04T18:12:15.347Z,10.97
2023-02-04T18:15:00.243Z,8.80
2023-02-04T18:17:44.383Z,7.17
2023-02-04T18:20:28.463Z,7.33
2023-02-04T18:23:16.872Z,5.83
2023-02-04T18:26:03.079Z,8.17
2023-02-04T18:28:48.868Z,7.83
2023-02-04T18:31:38.739Z,7.53
2023-02-04T18:34:28.581Z,8.93
2023-02-04T18:37:29.477Z,6.73
2023-02-04T18:40:30.606Z,6.43
2023-02-04T18:43:29.585Z,8.40
2023-02-04T18:46:24.029Z,13.73
2023-02-04T18:49:18.529Z,6.50
2023-02-04T18:52:16.114Z,9.07
2023-02-04T18:55:00.090Z,8.63
2023-02-04T18:57:45.314Z,7.20
2023-02-04T19:00:32.916Z,7.03
2023-02-04T19:03:26.257Z,15.03
2023-02-04T19:06:26.132Z,10.47
2023-02-04T19:09:19.278Z,8.73
2023-02-04T19:12:19.589Z,9.07
2023-02-04T19:15:31.266Z,12.43
2023-02-04T19:18:26.953Z,20.03
2023-02-04T19:21:26.016Z,9.17
2023-02-04T19:24:22.907Z,15.00
2023-02-04T19:27:26.860Z,10.40
2023-02-04T19:30:45.465Z,17.13
2023-02-04T19:33:34.273Z,17.20
2023-02-04T19:36:34.042Z,17.33
2023-02-04T19:39:30.736Z,15.90
2023-02-04T19:42:29.328Z,12.57
2023-02-04T19:45:19.697Z,16.97
2023-02-04T19:48:18.783Z,15.30
2023-02-04T19:51:08.780Z,15.30
2023-02-04T19:53:54.034Z,13.33
2023-02-04T19:56:40.078Z,20.13
2023-02-04T19:59:27.300Z,12.80
2023-02-04T20:02:26.744Z,15.60
2023-02-04T20:05:21.404Z,13.73
2023-02-04T20:08:39.970Z,20.53
2023-02-04T20:11:37.091Z,15.00
2023-02-04T20:14:29.914Z,23.20
2023-02-04T20:17:34.674Z,40.20
2023-02-04T20:20:23.651Z,25.67
2023-02-04T20:23:22.119Z,17.70
2023-02-04T20:26:06.092Z,24.50
2023-02-04T20:28:50.473Z,22.23
2023-02-04T20:31:41.073Z,16.83
2023-02-04T20:34:25.416Z,15.40
2023-02-04T20:37:17.735Z,15.90
2023-02-04T20:40:02.142Z,15.43
2023-02-04T20:42:48.275Z,16.87
2023-02-04T20:45:37.148Z,20.77
2023-02-04T20:48:32.746Z,14.63
2023-02-04T20:51:23.257Z,17.87
2023-02-04T20:54:17.484Z,18.20
2023-02-04T20:57:16.058Z,17.77
2023-02-04T20:59:59.992Z,17.20
2023-02-04T21:02:43.870Z,17.53
2023-02-04T21:05:27.688Z,14.67
2023-02-04T21:08:25.825Z,17.13
2023-02-04T21:11:11.106Z,18.73
2023-02-04T21:13:55.816Z,16.67
2023-02-04T21:16:39.754Z,13.80
2023-02-04T21:19:24.638Z,14.07
2023-02-04T21:22:08.427Z,14.20
2023-02-04T21:24:52.227Z,17.10
2023-02-04T21:27:37.409Z,14.60
2023-02-04T21:30:22.266Z,15.20
2023-02-04T21:33:06.029Z,15.33
2023-02-04T21:35:50.340Z,11.60
2023-02-04T21:38:34.181Z,14.20
2023-02-04T21:41:20.705Z,12.97
2023-02-04T21:44:06.290Z,11.47
2023-02-04T21:46:50.088Z,10.83
2023-02-04T21:49:33.991Z,8.93
2023-02-04T21:52:17.823Z,10.07
2023-02-04T21:55:01.643Z,8.80
2023-02-04T21:57:47.316Z,7.97
2023-02-04T22:00:32.527Z,7.27
2023-02-04T22:03:17.511Z,8.50
2023-02-04T22:06:01.971Z,8.37
2023-02-04T22:08:45.734Z,5.33
2023-02-04T22:11:29.575Z,8.23
2023-02-04T22:14:13.458Z,9.63
2023-02-04T22:16:58.589Z,6.30
2023-02-04T22:19:42.265Z,7.67
2023-02-04T22:22:26.180Z,7.33
2023-02-04T22:25:10.373Z,4.13
2023-02-04T22:27:54.158Z,7.03
2023-02-04T22:30:38.268Z,7.27
2023-02-04T22:33:23.490Z,6.50
2023-02-04T22:36:08.250Z,5.33
2023-02-04T22:38:52.542Z,4.63
2023-02-04T22:41:36.336Z,4.93
2023-02-04T22:44:20.185Z,4.00
2023-02-04T22:47:04.048Z,5.83
2023-02-04T22:49:49.274Z,3.77
2023-02-04T22:52:33.095Z,4.77
2023-02-04T22:55:17.094Z,4.73
2023-02-04T22:58:00.976Z,5.03
2023-02-04T23:00:45.021Z,4.63
2023-02-04T23:03:30.676Z,6.27
2023-02-04T23:06:16.118Z,5.47
2023-02-04T23:08:59.853Z,5.90
2023-02-04T23:11:44.052Z,6.07
2023-02-04T23:14:27.911Z,5.60
2023-02-04T23:17:12.518Z,6.30
2023-02-04T23:19:56.413Z,5.63
2023-02-04T23:22:41.795Z,5.63
2023-02-04T23:25:25.653Z,5.00
2023-02-04T23:28:09.532Z,6.20
2023-02-04T23:30:53.515Z,5.87
2023-02-04T23:33:37.354Z,6.50
2023-02-04T23:36:21.195Z,5.67
2023-02-04T23:39:06.431Z,6.07
2023-02-04T23:41:50.850Z,5.77
2023-02-04T23:44:34.969Z,7.07
2023-02-04T23:47:18.850Z,6.47
2023-02-04T23:50:02.630Z,6.80
2023-02-04T23:52:47.163Z,6.53
2023-02-04T23:55:32.981Z,5.97
2023-02-04T23:58:17.060Z,7.30
